Terminal Aerodrome Forecast
Issued by NWS

Home | Current Version | Previous Version | Text Only | Print | Product List | Glossary On
Versions: 1 2 3 4 5 6 7 8 9 10 11 12 13 14 15 16 17 18 19
000
FTUS43 KDVN 291727
TAFCID
TAF
KCID 291727Z 2918/3018 32007KT P6SM SCT030
     FM292100 31007KT P6SM VCTS BKN035CB
     FM300200 29004KT P6SM SCT035
     FM300600 27004KT 6SM BR SCT060=

USA.gov is the U.S. government's official web portal to all federal, state and local government web resources and services.